sensor_id;sensor_type;location;lat;lon;timestamp;pressure;altitude;pressure_sealevel;temperature
69597;BMP180;70000;51.176;-115.568;2023-05-07T00:02:02;86103.60;;;15.10
69597;BMP180;70000;51.176;-115.568;2023-05-07T00:04:32;86101.60;;;14.74
69597;BMP180;70000;51.176;-115.568;2023-05-07T00:07:08;86110.20;;;14.28
69597;BMP180;70000;51.176;-115.568;2023-05-07T00:09:37;86110.80;;;13.90
69597;BMP180;70000;51.176;-115.568;2023-05-07T00:12:07;86108.40;;;13.70
69597;BMP180;70000;51.176;-115.568;2023-05-07T00:15:13;86105.40;;;14.04
69597;BMP180;70000;51.176;-115.568;2023-05-07T00:17:42;86111.00;;;14.00
69597;BMP180;70000;51.176;-115.568;2023-05-07T00:20:11;86104.60;;;13.74
69597;BMP180;70000;51.176;-115.568;2023-05-07T00:22:40;86113.80;;;13.70
69597;BMP180;70000;51.176;-115.568;2023-05-07T00:25:09;86112.60;;;13.80
69597;BMP180;70000;51.176;-115.568;2023-05-07T00:27:38;86106.60;;;13.80
69597;BMP180;70000;51.176;-115.568;2023-05-07T00:30:07;86113.40;;;14.50
69597;BMP180;70000;51.176;-115.568;2023-05-07T00:32:36;86107.20;;;14.68
69597;BMP180;70000;51.176;-115.568;2023-05-07T00:35:06;86112.00;;;17.00
69597;BMP180;70000;51.176;-115.568;2023-05-07T00:37:35;86110.80;;;17.80
69597;BMP180;70000;51.176;-115.568;2023-05-07T00:40:03;86108.00;;;17.44
69597;BMP180;70000;51.176;-115.568;2023-05-07T00:42:35;86116.00;;;16.72
69597;BMP180;70000;51.176;-115.568;2023-05-07T00:45:04;86123.40;;;16.06
69597;BMP180;70000;51.176;-115.568;2023-05-07T00:47:35;86124.40;;;15.52
69597;BMP180;70000;51.176;-115.568;2023-05-07T00:50:05;86120.80;;;15.20
69597;BMP180;70000;51.176;-115.568;2023-05-07T00:52:34;86125.00;;;14.90
69597;BMP180;70000;51.176;-115.568;2023-05-07T00:55:06;86124.20;;;14.56
69597;BMP180;70000;51.176;-115.568;2023-05-07T00:57:41;86128.00;;;13.96
69597;BMP180;70000;51.176;-115.568;2023-05-07T01:00:10;86125.20;;;13.40
69597;BMP180;70000;51.176;-115.568;2023-05-07T01:02:41;86120.20;;;12.84
69597;BMP180;70000;51.176;-115.568;2023-05-07T01:05:15;86130.60;;;12.44
69597;BMP180;70000;51.176;-115.568;2023-05-07T01:07:45;86122.80;;;12.10
69597;BMP180;70000;51.176;-115.568;2023-05-07T01:10:15;86134.80;;;11.90
69597;BMP180;70000;51.176;-115.568;2023-05-07T01:12:45;86132.20;;;11.68
69597;BMP180;70000;51.176;-115.568;2023-05-07T01:15:15;86136.40;;;11.50
69597;BMP180;70000;51.176;-115.568;2023-05-07T01:17:44;86138.80;;;11.30
69597;BMP180;70000;51.176;-115.568;2023-05-07T01:20:15;86136.40;;;11.10
69597;BMP180;70000;51.176;-115.568;2023-05-07T01:22:47;86133.60;;;11.04
69597;BMP180;70000;51.176;-115.568;2023-05-07T01:25:15;86131.80;;;11.00
69597;BMP180;70000;51.176;-115.568;2023-05-07T01:27:44;86137.40;;;11.00
69597;BMP180;70000;51.176;-115.568;2023-05-07T01:30:16;86132.80;;;11.00
69597;BMP180;70000;51.176;-115.568;2023-05-07T01:32:53;86129.80;;;10.90
69597;BMP180;70000;51.176;-115.568;2023-05-07T01:35:34;86133.00;;;10.70
69597;BMP180;70000;51.176;-115.568;2023-05-07T01:38:04;86134.60;;;10.60
69597;BMP180;70000;51.176;-115.568;2023-05-07T01:40:34;86132.40;;;10.60
69597;BMP180;70000;51.176;-115.568;2023-05-07T01:46:21;86145.00;;;10.40
69597;BMP180;70000;51.176;-115.568;2023-05-07T01:48:51;86139.00;;;10.40
69597;BMP180;70000;51.176;-115.568;2023-05-07T01:51:23;86140.60;;;10.30
69597;BMP180;70000;51.176;-115.568;2023-05-07T01:53:53;86142.40;;;10.20
69597;BMP180;70000;51.176;-115.568;2023-05-07T01:56:24;86145.40;;;10.18
69597;BMP180;70000;51.176;-115.568;2023-05-07T01:58:53;86144.80;;;10.10
69597;BMP180;70000;51.176;-115.568;2023-05-07T02:01:22;86142.40;;;10.00
69597;BMP180;70000;51.176;-115.568;2023-05-07T02:03:52;86144.80;;;9.98
69597;BMP180;70000;51.176;-115.568;2023-05-07T02:06:22;86142.80;;;9.90
69597;BMP180;70000;51.176;-115.568;2023-05-07T02:08:53;86141.60;;;9.90
69597;BMP180;70000;51.176;-115.568;2023-05-07T02:11:22;86148.80;;;9.80
69597;BMP180;70000;51.176;-115.568;2023-05-07T02:13:52;86151.20;;;9.80
69597;BMP180;70000;51.176;-115.568;2023-05-07T02:16:22;86158.20;;;9.76
69597;BMP180;70000;51.176;-115.568;2023-05-07T02:18:52;86158.00;;;9.70
69597;BMP180;70000;51.176;-115.568;2023-05-07T02:21:22;86158.20;;;9.60
69597;BMP180;70000;51.176;-115.568;2023-05-07T02:23:52;86158.20;;;9.60
69597;BMP180;70000;51.176;-115.568;2023-05-07T02:30:04;86153.60;;;9.34
69597;BMP180;70000;51.176;-115.568;2023-05-07T02:34:52;86149.00;;;9.30
69597;BMP180;70000;51.176;-115.568;2023-05-07T02:37:22;86147.80;;;9.30
69597;BMP180;70000;51.176;-115.568;2023-05-07T02:39:55;86153.20;;;9.40
69597;BMP180;70000;51.176;-115.568;2023-05-07T02:42:25;86147.20;;;9.40
69597;BMP180;70000;51.176;-115.568;2023-05-07T02:45:06;86149.00;;;9.46
69597;BMP180;70000;51.176;-115.568;2023-05-07T02:48:15;86148.20;;;9.40
69597;BMP180;70000;51.176;-115.568;2023-05-07T02:50:53;86146.40;;;9.30
69597;BMP180;70000;51.176;-115.568;2023-05-07T02:53:26;86147.60;;;9.30
69597;BMP180;70000;51.176;-115.568;2023-05-07T02:56:02;86145.40;;;9.30
69597;BMP180;70000;51.176;-115.568;2023-05-07T02:58:38;86146.00;;;9.30
69597;BMP180;70000;51.176;-115.568;2023-05-07T03:01:13;86141.80;;;9.30
69597;BMP180;70000;51.176;-115.568;2023-05-07T03:03:50;86148.00;;;9.30
69597;BMP180;70000;51.176;-115.568;2023-05-07T03:09:44;86142.00;;;9.28
69597;BMP180;70000;51.176;-115.568;2023-05-07T03:12:19;86141.00;;;9.20
69597;BMP180;70000;51.176;-115.568;2023-05-07T03:20:28;86133.60;;;8.92
69597;BMP180;70000;51.176;-115.568;2023-05-07T03:23:08;86134.00;;;8.80
69597;BMP180;70000;51.176;-115.568;2023-05-07T03:25:40;86136.80;;;8.70
69597;BMP180;70000;51.176;-115.568;2023-05-07T03:28:15;86135.20;;;8.60
69597;BMP180;70000;51.176;-115.568;2023-05-07T03:30:57;86136.40;;;8.58
69597;BMP180;70000;51.176;-115.568;2023-05-07T03:33:32;86137.80;;;8.50
69597;BMP180;70000;51.176;-115.568;2023-05-07T03:36:16;86135.40;;;8.40
69597;BMP180;70000;51.176;-115.568;2023-05-07T03:38:49;86132.20;;;8.30
69597;BMP180;70000;51.176;-115.568;2023-05-07T03:41:18;86131.40;;;8.20
69597;BMP180;70000;51.176;-115.568;2023-05-07T03:43:49;86133.20;;;8.14
69597;BMP180;70000;51.176;-115.568;2023-05-07T03:46:18;86133.60;;;8.10
69597;BMP180;70000;51.176;-115.568;2023-05-07T03:48:47;86133.20;;;8.10
69597;BMP180;70000;51.176;-115.568;2023-05-07T03:51:16;86128.60;;;8.10
69597;BMP180;70000;51.176;-115.568;2023-05-07T03:53:48;86120.20;;;8.10
69597;BMP180;70000;51.176;-115.568;2023-05-07T03:56:17;86119.80;;;8.10
69597;BMP180;70000;51.176;-115.568;2023-05-07T03:59:27;86120.80;;;8.10
69597;BMP180;70000;51.176;-115.568;2023-05-07T04:02:09;86121.00;;;8.10
69597;BMP180;70000;51.176;-115.568;2023-05-07T04:05:20;86124.60;;;8.08
69597;BMP180;70000;51.176;-115.568;2023-05-07T04:08:15;86126.60;;;8.02
69597;BMP180;70000;51.176;-115.568;2023-05-07T04:10:58;86124.60;;;8.04
69597;BMP180;70000;51.176;-115.568;2023-05-07T04:13:30;86124.20;;;8.08
69597;BMP180;70000;51.176;-115.568;2023-05-07T04:16:04;86129.80;;;8.00
69597;BMP180;70000;51.176;-115.568;2023-05-07T04:18:39;86123.20;;;8.00
69597;BMP180;70000;51.176;-115.568;2023-05-07T04:21:18;86119.40;;;7.98
69597;BMP180;70000;51.176;-115.568;2023-05-07T04:23:51;86118.40;;;7.90
69597;BMP180;70000;51.176;-115.568;2023-05-07T04:26:22;86116.00;;;7.90
69597;BMP180;70000;51.176;-115.568;2023-05-07T04:28:57;86113.40;;;7.90
69597;BMP180;70000;51.176;-115.568;2023-05-07T04:31:32;86115.40;;;7.90
69597;BMP180;70000;51.176;-115.568;2023-05-07T04:34:09;86115.80;;;7.98
69597;BMP180;70000;51.176;-115.568;2023-05-07T04:36:39;86115.40;;;8.00
69597;BMP180;70000;51.176;-115.568;2023-05-07T04:39:11;86109.40;;;8.00
69597;BMP180;70000;51.176;-115.568;2023-05-07T04:41:49;86111.80;;;7.90
69597;BMP180;70000;51.176;-115.568;2023-05-07T04:44:18;86102.60;;;7.90
69597;BMP180;70000;51.176;-115.568;2023-05-07T04:46:48;86101.20;;;7.90
69597;BMP180;70000;51.176;-115.568;2023-05-07T04:49:19;86099.00;;;7.90
69597;BMP180;70000;51.176;-115.568;2023-05-07T04:51:54;86099.80;;;7.90
69597;BMP180;70000;51.176;-115.568;2023-05-07T04:54:26;86098.00;;;7.80
69597;BMP180;70000;51.176;-115.568;2023-05-07T04:57:11;86093.60;;;7.80
69597;BMP180;70000;51.176;-115.568;2023-05-07T04:59:43;86091.20;;;7.80
69597;BMP180;70000;51.176;-115.568;2023-05-07T05:02:12;86086.00;;;7.80
69597;BMP180;70000;51.176;-115.568;2023-05-07T05:04:50;86085.60;;;7.80
69597;BMP180;70000;51.176;-115.568;2023-05-07T05:07:25;86086.60;;;7.80
69597;BMP180;70000;51.176;-115.568;2023-05-07T05:09:57;86091.40;;;7.80
69597;BMP180;70000;51.176;-115.568;2023-05-07T05:12:29;86091.80;;;7.90
69597;BMP180;70000;51.176;-115.568;2023-05-07T05:15:01;86088.20;;;7.90
69597;BMP180;70000;51.176;-115.568;2023-05-07T05:17:30;86093.40;;;7.90
69597;BMP180;70000;51.176;-115.568;2023-05-07T05:20:00;86091.40;;;8.00
69597;BMP180;70000;51.176;-115.568;2023-05-07T05:22:32;86089.80;;;8.00
69597;BMP180;70000;51.176;-115.568;2023-05-07T05:25:04;86087.60;;;8.00
69597;BMP180;70000;51.176;-115.568;2023-05-07T05:27:38;86088.00;;;7.92
69597;BMP180;70000;51.176;-115.568;2023-05-07T05:30:17;86087.60;;;7.90
69597;BMP180;70000;51.176;-115.568;2023-05-07T05:32:47;86089.20;;;7.90
69597;BMP180;70000;51.176;-115.568;2023-05-07T05:35:17;86085.00;;;7.80
69597;BMP180;70000;51.176;-115.568;2023-05-07T05:37:46;86080.80;;;7.80
69597;BMP180;70000;51.176;-115.568;2023-05-07T05:40:16;86081.60;;;7.80
69597;BMP180;70000;51.176;-115.568;2023-05-07T05:42:44;86084.00;;;7.80
69597;BMP180;70000;51.176;-115.568;2023-05-07T05:45:17;86080.00;;;7.80
69597;BMP180;70000;51.176;-115.568;2023-05-07T05:47:46;86083.20;;;7.80
69597;BMP180;70000;51.176;-115.568;2023-05-07T05:50:15;86082.00;;;7.88
69597;BMP180;70000;51.176;-115.568;2023-05-07T05:52:44;86077.80;;;7.90
69597;BMP180;70000;51.176;-115.568;2023-05-07T05:55:13;86079.40;;;7.90
69597;BMP180;70000;51.176;-115.568;2023-05-07T05:57:42;86080.20;;;7.90
69597;BMP180;70000;51.176;-115.568;2023-05-07T06:00:11;86081.60;;;7.84
69597;BMP180;70000;51.176;-115.568;2023-05-07T06:02:41;86080.00;;;7.80
69597;BMP180;70000;51.176;-115.568;2023-05-07T06:05:11;86077.40;;;7.80
69597;BMP180;70000;51.176;-115.568;2023-05-07T06:07:40;86072.60;;;7.80
69597;BMP180;70000;51.176;-115.568;2023-05-07T06:10:09;86072.00;;;7.80
69597;BMP180;70000;51.176;-115.568;2023-05-07T06:12:40;86067.60;;;7.70
69597;BMP180;70000;51.176;-115.568;2023-05-07T06:15:10;86066.20;;;7.70
69597;BMP180;70000;51.176;-115.568;2023-05-07T06:17:39;86064.60;;;7.70
69597;BMP180;70000;51.176;-115.568;2023-05-07T06:20:08;86068.40;;;7.76
69597;BMP180;70000;51.176;-115.568;2023-05-07T06:22:38;86065.00;;;7.80
69597;BMP180;70000;51.176;-115.568;2023-05-07T06:25:08;86065.40;;;7.80
69597;BMP180;70000;51.176;-115.568;2023-05-07T06:27:37;86065.60;;;7.72
69597;BMP180;70000;51.176;-115.568;2023-05-07T06:30:08;86056.80;;;7.70
69597;BMP180;70000;51.176;-115.568;2023-05-07T06:32:39;86058.00;;;7.70
69597;BMP180;70000;51.176;-115.568;2023-05-07T06:35:09;86057.60;;;7.60
69597;BMP180;70000;51.176;-115.568;2023-05-07T06:37:38;86063.20;;;7.60
69597;BMP180;70000;51.176;-115.568;2023-05-07T06:40:09;86064.00;;;7.60
69597;BMP180;70000;51.176;-115.568;2023-05-07T06:42:38;86062.00;;;7.50
69597;BMP180;70000;51.176;-115.568;2023-05-07T06:45:09;86056.00;;;7.50
69597;BMP180;70000;51.176;-115.568;2023-05-07T06:47:38;86053.40;;;7.50
69597;BMP180;70000;51.176;-115.568;2023-05-07T06:50:08;86052.20;;;7.40
69597;BMP180;70000;51.176;-115.568;2023-05-07T06:52:38;86050.80;;;7.40
69597;BMP180;70000;51.176;-115.568;2023-05-07T06:55:08;86055.40;;;7.40
69597;BMP180;70000;51.176;-115.568;2023-05-07T06:57:38;86047.40;;;7.32
69597;BMP180;70000;51.176;-115.568;2023-05-07T07:00:08;86047.80;;;7.30
69597;BMP180;70000;51.176;-115.568;2023-05-07T07:02:38;86047.40;;;7.30
69597;BMP180;70000;51.176;-115.568;2023-05-07T07:05:10;86046.40;;;7.30
69597;BMP180;70000;51.176;-115.568;2023-05-07T07:07:39;86046.20;;;7.30
69597;BMP180;70000;51.176;-115.568;2023-05-07T07:10:09;86046.00;;;7.30
69597;BMP180;70000;51.176;-115.568;2023-05-07T07:12:38;86046.20;;;7.20
69597;BMP180;70000;51.176;-115.568;2023-05-07T07:15:07;86046.00;;;7.20
69597;BMP180;70000;51.176;-115.568;2023-05-07T07:17:36;86045.60;;;7.20
69597;BMP180;70000;51.176;-115.568;2023-05-07T07:20:06;86046.20;;;7.10
69597;BMP180;70000;51.176;-115.568;2023-05-07T07:22:38;86044.20;;;7.10
69597;BMP180;70000;51.176;-115.568;2023-05-07T07:25:13;86037.80;;;7.10
69597;BMP180;70000;51.176;-115.568;2023-05-07T07:27:42;86039.60;;;7.10
69597;BMP180;70000;51.176;-115.568;2023-05-07T07:30:11;86043.00;;;7.10
69597;BMP180;70000;51.176;-115.568;2023-05-07T07:32:40;86040.80;;;7.10
69597;BMP180;70000;51.176;-115.568;2023-05-07T07:35:09;86041.20;;;7.10
69597;BMP180;70000;51.176;-115.568;2023-05-07T07:37:38;86036.00;;;7.10
69597;BMP180;70000;51.176;-115.568;2023-05-07T07:40:08;86038.20;;;7.10
69597;BMP180;70000;51.176;-115.568;2023-05-07T07:42:38;86035.00;;;7.10
69597;BMP180;70000;51.176;-115.568;2023-05-07T07:45:08;86035.60;;;7.08
69597;BMP180;70000;51.176;-115.568;2023-05-07T07:47:37;86037.60;;;7.00
69597;BMP180;70000;51.176;-115.568;2023-05-07T07:50:08;86035.40;;;7.08
69597;BMP180;70000;51.176;-115.568;2023-05-07T07:52:38;86034.40;;;7.10
69597;BMP180;70000;51.176;-115.568;2023-05-07T07:55:08;86033.20;;;7.10
69597;BMP180;70000;51.176;-115.568;2023-05-07T07:57:38;86029.20;;;7.10
69597;BMP180;70000;51.176;-115.568;2023-05-07T08:00:07;86027.80;;;7.00
69597;BMP180;70000;51.176;-115.568;2023-05-07T08:02:38;86026.80;;;7.08
69597;BMP180;70000;51.176;-115.568;2023-05-07T08:05:07;86028.60;;;7.10
69597;BMP180;70000;51.176;-115.568;2023-05-07T08:07:36;86027.60;;;7.10
69597;BMP180;70000;51.176;-115.568;2023-05-07T08:10:06;86026.60;;;7.14
69597;BMP180;70000;51.176;-115.568;2023-05-07T08:12:35;86022.00;;;7.10
69597;BMP180;70000;51.176;-115.568;2023-05-07T08:15:05;86025.20;;;7.10
69597;BMP180;70000;51.176;-115.568;2023-05-07T08:17:40;86020.00;;;7.18
69597;BMP180;70000;51.176;-115.568;2023-05-07T08:20:10;86021.80;;;7.20
69597;BMP180;70000;51.176;-115.568;2023-05-07T08:22:42;86013.20;;;7.20
69597;BMP180;70000;51.176;-115.568;2023-05-07T08:25:21;86010.80;;;7.24
69597;BMP180;70000;51.176;-115.568;2023-05-07T08:27:53;86008.00;;;7.30
69597;BMP180;70000;51.176;-115.568;2023-05-07T08:30:22;86005.00;;;7.30
69597;BMP180;70000;51.176;-115.568;2023-05-07T08:32:51;86003.20;;;7.30
69597;BMP180;70000;51.176;-115.568;2023-05-07T08:35:20;85998.60;;;7.30
69597;BMP180;70000;51.176;-115.568;2023-05-07T08:37:49;85997.60;;;7.30
69597;BMP180;70000;51.176;-115.568;2023-05-07T08:40:18;85998.20;;;7.30
69597;BMP180;70000;51.176;-115.568;2023-05-07T08:42:49;86005.20;;;7.26
69597;BMP180;70000;51.176;-115.568;2023-05-07T08:45:21;86001.60;;;7.28
69597;BMP180;70000;51.176;-115.568;2023-05-07T08:48:00;85993.40;;;7.20
69597;BMP180;70000;51.176;-115.568;2023-05-07T08:50:30;85990.60;;;7.20
69597;BMP180;70000;51.176;-115.568;2023-05-07T08:52:59;85986.00;;;7.20
69597;BMP180;70000;51.176;-115.568;2023-05-07T08:55:29;85985.00;;;7.10
69597;BMP180;70000;51.176;-115.568;2023-05-07T08:57:59;85989.80;;;7.10
69597;BMP180;70000;51.176;-115.568;2023-05-07T09:00:27;85995.40;;;7.00
69597;BMP180;70000;51.176;-115.568;2023-05-07T09:02:57;85989.60;;;7.00
69597;BMP180;70000;51.176;-115.568;2023-05-07T09:05:26;85989.40;;;6.92
69597;BMP180;70000;51.176;-115.568;2023-05-07T09:07:55;85990.40;;;6.90
69597;BMP180;70000;51.176;-115.568;2023-05-07T09:10:25;85988.80;;;6.90
69597;BMP180;70000;51.176;-115.568;2023-05-07T09:12:55;85987.00;;;6.90
69597;BMP180;70000;51.176;-115.568;2023-05-07T09:15:28;85980.40;;;6.90
69597;BMP180;70000;51.176;-115.568;2023-05-07T09:18:00;85983.40;;;6.82
69597;BMP180;70000;51.176;-115.568;2023-05-07T09:20:33;85979.80;;;6.90
69597;BMP180;70000;51.176;-115.568;2023-05-07T09:23:05;85977.40;;;6.90
69597;BMP180;70000;51.176;-115.568;2023-05-07T09:25:37;85976.40;;;6.90
69597;BMP180;70000;51.176;-115.568;2023-05-07T09:28:06;85979.40;;;6.90
69597;BMP180;70000;51.176;-115.568;2023-05-07T09:30:39;85979.60;;;6.90
69597;BMP180;70000;51.176;-115.568;2023-05-07T09:33:08;85973.40;;;6.92
69597;BMP180;70000;51.176;-115.568;2023-05-07T09:35:38;85970.40;;;6.90
69597;BMP180;70000;51.176;-115.568;2023-05-07T09:38:09;85971.60;;;6.90
69597;BMP180;70000;51.176;-115.568;2023-05-07T09:40:38;85969.60;;;6.86
69597;BMP180;70000;51.176;-115.568;2023-05-07T09:43:17;85968.80;;;6.80
69597;BMP180;70000;51.176;-115.568;2023-05-07T09:45:47;85966.80;;;6.80
69597;BMP180;70000;51.176;-115.568;2023-05-07T09:48:19;85965.20;;;6.80
69597;BMP180;70000;51.176;-115.568;2023-05-07T09:50:57;85963.00;;;6.80
69597;BMP180;70000;51.176;-115.568;2023-05-07T09:53:32;85960.60;;;6.80
69597;BMP180;70000;51.176;-115.568;2023-05-07T09:56:07;85965.40;;;6.80
69597;BMP180;70000;51.176;-115.568;2023-05-07T09:58:39;85965.40;;;6.80
69597;BMP180;70000;51.176;-115.568;2023-05-07T10:01:12;85962.80;;;6.80
69597;BMP180;70000;51.176;-115.568;2023-05-07T10:03:44;85962.40;;;6.80
69597;BMP180;70000;51.176;-115.568;2023-05-07T10:06:18;85959.60;;;6.80
69597;BMP180;70000;51.176;-115.568;2023-05-07T10:08:49;85957.60;;;6.76
69597;BMP180;70000;51.176;-115.568;2023-05-07T10:11:22;85954.80;;;6.70
69597;BMP180;70000;51.176;-115.568;2023-05-07T10:13:53;85960.00;;;6.70
69597;BMP180;70000;51.176;-115.568;2023-05-07T10:16:23;85957.40;;;6.70
69597;BMP180;70000;51.176;-115.568;2023-05-07T10:18:56;85958.60;;;6.70
69597;BMP180;70000;51.176;-115.568;2023-05-07T10:21:30;85959.80;;;6.70
69597;BMP180;70000;51.176;-115.568;2023-05-07T10:24:10;85965.60;;;6.70
69597;BMP180;70000;51.176;-115.568;2023-05-07T10:26:48;85961.20;;;6.70
69597;BMP180;70000;51.176;-115.568;2023-05-07T10:35:24;85957.40;;;6.70
69597;BMP180;70000;51.176;-115.568;2023-05-07T10:37:54;85953.40;;;6.70
69597;BMP180;70000;51.176;-115.568;2023-05-07T10:40:24;85953.40;;;6.70
69597;BMP180;70000;51.176;-115.568;2023-05-07T10:43:02;85949.60;;;6.78
69597;BMP180;70000;51.176;-115.568;2023-05-07T10:45:37;85949.20;;;6.80
69597;BMP180;70000;51.176;-115.568;2023-05-07T10:48:16;85947.00;;;6.80
69597;BMP180;70000;51.176;-115.568;2023-05-07T10:51:32;85942.00;;;6.80
69597;BMP180;70000;51.176;-115.568;2023-05-07T10:56:42;85943.40;;;6.80
69597;BMP180;70000;51.176;-115.568;2023-05-07T11:02:05;85942.40;;;6.72
69597;BMP180;70000;51.176;-115.568;2023-05-07T11:04:42;85941.00;;;6.70
69597;BMP180;70000;51.176;-115.568;2023-05-07T11:07:30;85937.20;;;6.70
69597;BMP180;70000;51.176;-115.568;2023-05-07T11:10:01;85940.20;;;6.70
69597;BMP180;70000;51.176;-115.568;2023-05-07T11:15:12;85933.40;;;6.70
69597;BMP180;70000;51.176;-115.568;2023-05-07T11:17:59;85933.20;;;6.70
69597;BMP180;70000;51.176;-115.568;2023-05-07T11:26:08;85936.00;;;6.70
69597;BMP180;70000;51.176;-115.568;2023-05-07T11:28:40;85932.80;;;6.70
69597;BMP180;70000;51.176;-115.568;2023-05-07T11:31:11;85937.40;;;6.70
69597;BMP180;70000;51.176;-115.568;2023-05-07T11:33:44;85936.00;;;6.70
69597;BMP180;70000;51.176;-115.568;2023-05-07T11:36:13;85932.60;;;6.60
69597;BMP180;70000;51.176;-115.568;2023-05-07T11:38:43;85937.80;;;6.70
69597;BMP180;70000;51.176;-115.568;2023-05-07T11:41:12;85937.80;;;6.70
69597;BMP180;70000;51.176;-115.568;2023-05-07T11:44:01;85936.80;;;6.70
69597;BMP180;70000;51.176;-115.568;2023-05-07T11:46:30;85937.60;;;6.70
69597;BMP180;70000;51.176;-115.568;2023-05-07T11:49:01;85932.80;;;6.70
69597;BMP180;70000;51.176;-115.568;2023-05-07T11:51:30;85935.20;;;6.70
69597;BMP180;70000;51.176;-115.568;2023-05-07T11:54:00;85934.60;;;6.70
69597;BMP180;70000;51.176;-115.568;2023-05-07T11:56:35;85934.60;;;6.70
69597;BMP180;70000;51.176;-115.568;2023-05-07T11:59:08;85931.20;;;6.70
69597;BMP180;70000;51.176;-115.568;2023-05-07T12:01:37;85935.40;;;6.78
69597;BMP180;70000;51.176;-115.568;2023-05-07T12:04:06;85930.20;;;6.80
69597;BMP180;70000;51.176;-115.568;2023-05-07T12:06:39;85928.00;;;6.80
69597;BMP180;70000;51.176;-115.568;2023-05-07T12:09:08;85928.80;;;6.82
69597;BMP180;70000;51.176;-115.568;2023-05-07T12:11:39;85928.20;;;6.90
69597;BMP180;70000;51.176;-115.568;2023-05-07T12:14:08;85927.40;;;6.80
69597;BMP180;70000;51.176;-115.568;2023-05-07T12:16:40;85929.00;;;6.80
69597;BMP180;70000;51.176;-115.568;2023-05-07T12:19:09;85925.60;;;6.80
69597;BMP180;70000;51.176;-115.568;2023-05-07T12:21:43;85927.40;;;6.74
69597;BMP180;70000;51.176;-115.568;2023-05-07T12:24:15;85928.80;;;6.80
69597;BMP180;70000;51.176;-115.568;2023-05-07T12:26:44;85929.40;;;6.80
69597;BMP180;70000;51.176;-115.568;2023-05-07T12:29:13;85928.60;;;6.80
69597;BMP180;70000;51.176;-115.568;2023-05-07T12:31:45;85919.80;;;6.80
69597;BMP180;70000;51.176;-115.568;2023-05-07T12:34:14;85921.60;;;6.80
69597;BMP180;70000;51.176;-115.568;2023-05-07T12:36:48;85917.80;;;6.80
69597;BMP180;70000;51.176;-115.568;2023-05-07T12:39:17;85916.20;;;6.80
69597;BMP180;70000;51.176;-115.568;2023-05-07T12:41:57;85920.80;;;6.80
69597;BMP180;70000;51.176;-115.568;2023-05-07T12:44:34;85915.40;;;6.80
69597;BMP180;70000;51.176;-115.568;2023-05-07T12:47:04;85920.60;;;6.80
69597;BMP180;70000;51.176;-115.568;2023-05-07T12:49:35;85919.40;;;6.80
69597;BMP180;70000;51.176;-115.568;2023-05-07T12:52:07;85916.20;;;6.78
69597;BMP180;70000;51.176;-115.568;2023-05-07T12:54:38;85914.40;;;6.80
69597;BMP180;70000;51.176;-115.568;2023-05-07T12:57:09;85915.60;;;6.80
69597;BMP180;70000;51.176;-115.568;2023-05-07T12:59:45;85910.40;;;6.80
69597;BMP180;70000;51.176;-115.568;2023-05-07T13:02:14;85905.20;;;6.90
69597;BMP180;70000;51.176;-115.568;2023-05-07T13:04:44;85904.00;;;6.90
69597;BMP180;70000;51.176;-115.568;2023-05-07T13:07:13;85902.80;;;6.90
69597;BMP180;70000;51.176;-115.568;2023-05-07T13:09:42;85892.00;;;7.00
69597;BMP180;70000;51.176;-115.568;2023-05-07T13:12:11;85894.20;;;7.00
69597;BMP180;70000;51.176;-115.568;2023-05-07T13:14:40;85902.20;;;7.08
69597;BMP180;70000;51.176;-115.568;2023-05-07T13:17:09;85904.00;;;7.10
69597;BMP180;70000;51.176;-115.568;2023-05-07T13:19:41;85899.80;;;7.10
69597;BMP180;70000;51.176;-115.568;2023-05-07T13:22:10;85901.40;;;7.20
69597;BMP180;70000;51.176;-115.568;2023-05-07T13:24:40;85899.40;;;7.20
69597;BMP180;70000;51.176;-115.568;2023-05-07T13:27:11;85896.00;;;7.20
69597;BMP180;70000;51.176;-115.568;2023-05-07T13:29:41;85894.60;;;7.16
69597;BMP180;70000;51.176;-115.568;2023-05-07T13:32:10;85892.20;;;7.10
69597;BMP180;70000;51.176;-115.568;2023-05-07T13:34:39;85891.40;;;7.16
69597;BMP180;70000;51.176;-115.568;2023-05-07T13:37:08;85891.00;;;7.20
69597;BMP180;70000;51.176;-115.568;2023-05-07T13:39:38;85893.80;;;7.20
69597;BMP180;70000;51.176;-115.568;2023-05-07T13:42:09;85892.60;;;7.20
69597;BMP180;70000;51.176;-115.568;2023-05-07T13:44:41;85892.80;;;7.26
69597;BMP180;70000;51.176;-115.568;2023-05-07T13:47:13;85892.80;;;7.34
69597;BMP180;70000;51.176;-115.568;2023-05-07T13:49:42;85894.20;;;7.40
69597;BMP180;70000;51.176;-115.568;2023-05-07T13:52:11;85891.80;;;7.52
69597;BMP180;70000;51.176;-115.568;2023-05-07T13:54:40;85892.20;;;7.70
69597;BMP180;70000;51.176;-115.568;2023-05-07T13:57:09;85893.60;;;7.80
69597;BMP180;70000;51.176;-115.568;2023-05-07T13:59:38;85899.00;;;7.90
69597;BMP180;70000;51.176;-115.568;2023-05-07T14:02:08;85903.00;;;8.00
69597;BMP180;70000;51.176;-115.568;2023-05-07T14:04:38;85901.60;;;8.10
69597;BMP180;70000;51.176;-115.568;2023-05-07T14:07:07;85900.20;;;8.30
69597;BMP180;70000;51.176;-115.568;2023-05-07T14:09:36;85901.00;;;8.30
69597;BMP180;70000;51.176;-115.568;2023-05-07T14:12:07;85900.80;;;8.40
69597;BMP180;70000;51.176;-115.568;2023-05-07T14:14:36;85900.00;;;8.50
69597;BMP180;70000;51.176;-115.568;2023-05-07T14:17:07;85898.00;;;8.60
69597;BMP180;70000;51.176;-115.568;2023-05-07T14:19:37;85897.20;;;8.60
69597;BMP180;70000;51.176;-115.568;2023-05-07T14:22:06;85904.80;;;8.60
69597;BMP180;70000;51.176;-115.568;2023-05-07T14:24:36;85907.60;;;8.70
69597;BMP180;70000;51.176;-115.568;2023-05-07T14:27:06;85905.80;;;8.80
69597;BMP180;70000;51.176;-115.568;2023-05-07T14:29:35;85905.60;;;8.80
69597;BMP180;70000;51.176;-115.568;2023-05-07T14:32:20;85906.80;;;8.88
69597;BMP180;70000;51.176;-115.568;2023-05-07T14:34:49;85904.00;;;9.00
69597;BMP180;70000;51.176;-115.568;2023-05-07T14:37:19;85905.40;;;8.90
69597;BMP180;70000;51.176;-115.568;2023-05-07T14:39:49;85907.80;;;9.00
69597;BMP180;70000;51.176;-115.568;2023-05-07T14:42:18;85910.20;;;9.04
69597;BMP180;70000;51.176;-115.568;2023-05-07T14:44:48;85909.60;;;9.10
69597;BMP180;70000;51.176;-115.568;2023-05-07T14:47:17;85906.80;;;9.10
69597;BMP180;70000;51.176;-115.568;2023-05-07T14:49:47;85908.60;;;9.20